Time;durP1;ratioP1;P1;durP2;ratioP2;P2;SDS_P1;SDS_P2;PMS_P1;PMS_P2;Temp;Humidity;BMP_temperature;BMP_pressure;BME280_temperature;BME280_humidity;BME280_pressure;Samples;Min_cycle;Max_cycle;Signal;HPM_P1;HPM_P2
2022/04/07 00:00:28;;;;;;;7.60;4.45;;;;;;;10.47;100.00;97845.38;5052618;28;20193;-75
2022/04/07 00:02:55;;;;;;;8.57;4.53;;;;;;;10.47;100.00;97834.59;5052582;28;20559;-76
2022/04/07 00:05:21;;;;;;;5.90;4.30;;;;;;;10.66;100.00;97833.00;5052425;28;20638;-76
2022/04/07 00:07:49;;;;;;;18.25;10.30;;;;;;;10.78;100.00;97838.16;5052577;28;20202;-76
2022/04/07 00:10:16;;;;;;;5.80;3.83;;;;;;;10.85;100.00;97836.66;5053320;28;20193;-75
2022/04/07 00:12:43;;;;;;;14.73;8.55;;;;;;;10.96;100.00;97827.63;5053534;28;20213;-76
2022/04/07 00:15:11;;;;;;;6.35;4.45;;;;;;;10.87;100.00;97825.75;5051955;28;20201;-75
2022/04/07 00:17:38;;;;;;;29.20;16.60;;;;;;;10.74;100.00;97811.66;5051803;28;20628;-76
2022/04/07 00:20:05;;;;;;;8.32;5.30;;;;;;;10.75;100.00;97805.28;5051795;28;20208;-76
2022/04/07 00:22:33;;;;;;;18.98;11.38;;;;;;;10.81;100.00;97799.38;5051736;28;20208;-75
2022/04/07 00:25:01;;;;;;;6.60;5.15;;;;;;;10.74;100.00;97803.56;5052357;28;20197;-76
2022/04/07 00:27:28;;;;;;;8.23;6.13;;;;;;;10.68;100.00;97809.50;5051501;28;20189;-76
2022/04/07 00:29:54;;;;;;;6.75;5.38;;;;;;;10.70;100.00;97804.84;5052208;28;20662;-77
2022/04/07 00:32:21;;;;;;;6.00;4.85;;;;;;;10.70;100.00;97805.69;5050909;28;20310;-76
2022/04/07 00:34:49;;;;;;;8.18;4.45;;;;;;;10.44;100.00;97797.16;5051816;28;20196;-76
2022/04/07 00:37:17;;;;;;;8.27;5.78;;;;;;;10.57;100.00;97797.81;5052168;28;20198;-75
2022/04/07 00:39:43;;;;;;;5.85;4.63;;;;;;;10.55;100.00;97783.66;5051202;28;20208;-76
2022/04/07 00:42:12;;;;;;;4.78;4.13;;;;;;;10.44;100.00;97786.41;5051882;28;20615;-76
2022/04/07 00:44:38;;;;;;;6.15;4.93;;;;;;;10.39;100.00;97777.91;5051887;28;20201;-76
2022/04/07 00:47:05;;;;;;;9.95;5.93;;;;;;;10.34;100.00;97782.81;5052026;28;20203;-75
2022/04/07 00:49:32;;;;;;;8.25;5.93;;;;;;;10.43;100.00;97776.66;5044720;28;20620;-76
2022/04/07 00:51:59;;;;;;;7.60;4.82;;;;;;;10.40;100.00;97763.44;5051836;28;20740;-76
2022/04/07 00:54:27;;;;;;;5.70;4.20;;;;;;;10.43;100.00;97766.72;5054918;28;20624;-75
2022/04/07 00:56:55;;;;;;;7.45;4.95;;;;;;;10.44;100.00;97772.97;5063982;28;20204;-76
2022/04/07 00:59:24;;;;;;;7.30;5.13;;;;;;;10.35;100.00;97763.00;5051797;28;20553;-76
2022/04/07 01:01:51;;;;;;;8.30;4.75;;;;;;;10.28;100.00;97764.47;5051587;28;20199;-75
2022/04/07 01:04:18;;;;;;;5.72;4.68;;;;;;;10.25;100.00;97752.16;5051581;28;20684;-75
2022/04/07 01:06:47;;;;;;;6.20;4.75;;;;;;;10.30;100.00;97752.63;5051576;28;20239;-75
2022/04/07 01:09:14;;;;;;;5.57;4.97;;;;;;;10.33;100.00;97730.00;5051699;28;20257;-76
2022/04/07 01:11:41;;;;;;;7.25;4.80;;;;;;;10.40;100.00;97742.81;5051630;28;20664;-76
2022/04/07 01:14:08;;;;;;;30.23;16.65;;;;;;;10.39;100.00;97733.00;5050314;28;20528;-76
2022/04/07 01:16:36;;;;;;;6.10;4.75;;;;;;;10.41;100.00;97749.88;5051621;28;20186;-76
2022/04/07 01:19:03;;;;;;;4.65;4.05;;;;;;;10.35;100.00;97725.34;5051781;28;20196;-75
2022/04/07 01:21:31;;;;;;;6.45;4.20;;;;;;;10.32;100.00;97726.47;5051601;28;20198;-75
2022/04/07 01:24:03;;;;;;;6.00;3.70;;;;;;;10.23;100.00;97730.75;5051509;28;20193;-75
2022/04/07 01:26:37;;;;;;;21.45;11.77;;;;;;;10.27;100.00;97733.22;5051039;28;20184;-76
2022/04/07 01:29:04;;;;;;;5.10;4.00;;;;;;;10.33;100.00;97724.63;5051537;28;20188;-76
2022/04/07 01:31:32;;;;;;;4.22;3.80;;;;;;;10.23;100.00;97732.59;5051069;28;20191;-76
2022/04/07 01:33:59;;;;;;;4.32;3.83;;;;;;;10.22;100.00;97712.06;5050798;28;20220;-76
2022/04/07 01:36:27;;;;;;;6.05;3.53;;;;;;;10.29;100.00;97718.66;5051544;28;20190;-76
2022/04/07 01:38:56;;;;;;;4.95;3.53;;;;;;;10.25;100.00;97714.50;5050527;28;20192;-76
2022/04/07 01:41:22;;;;;;;3.80;3.20;;;;;;;10.13;100.00;97719.13;5050742;28;20205;-75
2022/04/07 01:43:51;;;;;;;4.78;3.33;;;;;;;10.14;100.00;97723.50;5053192;28;20199;-76
2022/04/07 01:46:22;;;;;;;4.38;3.33;;;;;;;10.07;100.00;97719.63;5051020;28;20192;-74
2022/04/07 01:48:49;;;;;;;5.35;2.85;;;;;;;10.09;100.00;97711.44;5055542;28;20665;-75
2022/04/07 01:51:17;;;;;;;4.28;3.13;;;;;;;10.02;100.00;97717.34;5047336;28;20188;-75
2022/04/07 01:53:44;;;;;;;5.63;3.53;;;;;;;10.01;100.00;97709.41;5054539;28;20226;-75
2022/04/07 01:56:11;;;;;;;3.33;3.03;;;;;;;10.05;100.00;97700.09;5054579;28;20198;-75
2022/04/07 01:58:38;;;;;;;3.83;2.90;;;;;;;10.02;100.00;97694.97;5054957;28;20252;-75
2022/04/07 02:01:06;;;;;;;3.30;3.00;;;;;;;9.89;100.00;97702.41;5054830;28;20197;-75
2022/04/07 02:03:33;;;;;;;4.60;2.83;;;;;;;9.92;100.00;97694.06;5054513;28;20645;-76
2022/04/07 02:06:13;;;;;;;4.00;2.80;;;;;;;9.95;100.00;97693.78;5054435;28;20527;-76
2022/04/07 02:08:40;;;;;;;7.00;3.13;;;;;;;9.93;100.00;97695.78;5054553;28;20546;-76
2022/04/07 02:11:07;;;;;;;3.42;2.92;;;;;;;9.92;100.00;97681.47;5052394;28;20279;-76
2022/04/07 02:13:34;;;;;;;4.30;3.10;;;;;;;9.89;100.00;97686.25;5053827;28;20211;-76
2022/04/07 02:16:01;;;;;;;5.55;3.33;;;;;;;9.91;100.00;97687.00;5054726;28;20197;-76
2022/04/07 02:18:29;;;;;;;3.75;2.65;;;;;;;9.93;100.00;97687.72;5054591;28;20538;-76
2022/04/07 02:20:56;;;;;;;3.45;2.50;;;;;;;9.88;100.00;97679.16;5054821;28;21474;-76
2022/04/07 02:23:23;;;;;;;3.10;2.35;;;;;;;10.04;100.00;97687.66;5053813;28;20187;-76
2022/04/07 02:25:49;;;;;;;3.92;3.03;;;;;;;10.17;100.00;97687.41;5054356;28;20199;-75
2022/04/07 02:28:16;;;;;;;3.70;2.88;;;;;;;10.17;100.00;97680.19;5054580;28;20191;-75
2022/04/07 02:30:43;;;;;;;4.13;2.80;;;;;;;10.17;100.00;97682.03;5053944;28;20668;-75
2022/04/07 02:33:09;;;;;;;3.75;2.13;;;;;;;10.16;100.00;97667.75;5053999;28;20204;-75
2022/04/07 02:35:37;;;;;;;2.97;2.20;;;;;;;10.14;100.00;97667.03;5054293;28;20196;-75
2022/04/07 02:38:04;;;;;;;2.55;2.10;;;;;;;10.22;100.00;97672.59;5053661;28;20197;-75
2022/04/07 02:40:30;;;;;;;2.55;1.73;;;;;;;10.30;100.00;97660.34;5053982;28;20193;-75
2022/04/07 02:42:57;;;;;;;3.78;2.10;;;;;;;10.22;100.00;97664.53;5052181;28;20299;-75
2022/04/07 02:45:24;;;;;;;2.53;1.98;;;;;;;10.18;100.00;97660.41;5053894;28;20291;-76
2022/04/07 02:47:50;;;;;;;3.03;1.83;;;;;;;10.15;100.00;97660.69;5053606;28;20199;-76
2022/04/07 02:50:17;;;;;;;2.50;2.10;;;;;;;10.26;100.00;97650.81;5054062;28;20197;-76
2022/04/07 02:52:45;;;;;;;2.85;2.28;;;;;;;10.26;100.00;97658.88;5054126;28;20651;-75
2022/04/07 02:55:12;;;;;;;2.15;1.63;;;;;;;10.22;100.00;97653.78;5053063;28;21007;-76
2022/04/07 02:57:38;;;;;;;2.85;1.70;;;;;;;10.29;100.00;97643.34;5057885;28;20279;-75
2022/04/07 03:00:06;;;;;;;3.50;1.90;;;;;;;10.32;100.00;97626.94;5053249;28;20193;-76
2022/04/07 03:02:33;;;;;;;1.85;1.52;;;;;;;10.34;100.00;97624.97;5053453;28;20977;-76
2022/04/07 03:05:00;;;;;;;3.42;1.80;;;;;;;10.25;100.00;97617.69;5054097;28;20818;-75
2022/04/07 03:07:26;;;;;;;2.03;1.83;;;;;;;10.13;100.00;97616.94;5053463;28;20190;-74
2022/04/07 03:09:54;;;;;;;1.90;1.70;;;;;;;10.06;100.00;97610.34;5049799;28;20202;-75
2022/04/07 03:12:21;;;;;;;2.75;2.10;;;;;;;10.06;100.00;97609.53;5053752;28;20218;-75
2022/04/07 03:14:47;;;;;;;1.73;1.60;;;;;;;10.07;100.00;97617.47;5053520;28;20188;-75
2022/04/07 03:17:14;;;;;;;2.00;1.80;;;;;;;10.10;100.00;97611.81;5053647;28;20557;-75
2022/04/07 03:19:41;;;;;;;1.80;1.35;;;;;;;10.02;100.00;97615.19;5053115;28;20300;-75
2022/04/07 03:22:07;;;;;;;1.73;1.45;;;;;;;10.04;100.00;97628.50;5053682;28;20231;-76
2022/04/07 03:24:34;;;;;;;2.08;1.30;;;;;;;10.04;100.00;97620.44;5052601;28;20195;-76
2022/04/07 03:27:04;;;;;;;3.00;1.35;;;;;;;9.97;100.00;97620.09;5053116;28;20554;-76
2022/04/07 03:29:31;;;;;;;2.05;1.23;;;;;;;9.94;100.00;97619.50;5053291;28;20241;-74
2022/04/07 03:31:58;;;;;;;3.60;1.17;;;;;;;10.02;100.00;97615.19;5052955;28;20188;-76
2022/04/07 03:34:25;;;;;;;2.85;1.85;;;;;;;10.07;100.00;97614.78;5053019;28;20219;-76
2022/04/07 03:36:52;;;;;;;1.85;1.48;;;;;;;10.10;100.00;97614.50;5052941;28;20202;-76
2022/04/07 03:39:18;;;;;;;4.13;2.67;;;;;;;10.01;100.00;97612.59;5053181;28;20200;-75
2022/04/07 03:41:45;;;;;;;2.65;1.50;;;;;;;9.98;100.00;97619.09;5053060;28;20296;-77
2022/04/07 03:44:13;;;;;;;1.60;1.50;;;;;;;9.99;100.00;97610.06;5057761;28;20193;-77
2022/04/07 03:46:40;;;;;;;1.77;1.20;;;;;;;9.86;100.00;97600.50;5052649;28;20202;-77
2022/04/07 03:49:07;;;;;;;3.55;1.63;;;;;;;9.76;100.00;97603.16;5052297;28;20193;-77
2022/04/07 03:51:34;;;;;;;1.42;1.30;;;;;;;9.73;100.00;97590.81;5052588;28;20202;-76
2022/04/07 03:54:01;;;;;;;2.35;1.55;;;;;;;9.87;100.00;97588.78;5047815;28;20208;-77
2022/04/07 03:56:27;;;;;;;2.05;1.30;;;;;;;9.91;100.00;97585.69;5052191;28;20225;-77
2022/04/07 03:58:55;;;;;;;2.47;1.52;;;;;;;9.90;100.00;97589.34;5052462;28;20644;-77
2022/04/07 04:01:23;;;;;;;1.67;1.58;;;;;;;9.79;100.00;97589.44;5052358;28;20660;-77
2022/04/07 04:03:50;;;;;;;1.92;1.65;;;;;;;9.79;100.00;97594.81;5052766;28;20198;-77
2022/04/07 04:06:16;;;;;;;2.22;1.55;;;;;;;9.88;100.00;97577.91;5052231;28;20200;-77
2022/04/07 04:08:49;;;;;;;1.70;1.60;;;;;;;9.90;100.00;97577.75;5051326;28;20206;-78
2022/04/07 04:11:15;;;;;;;3.15;1.40;;;;;;;9.95;100.00;97568.31;5052067;28;20187;-77
2022/04/07 04:13:42;;;;;;;2.20;1.65;;;;;;;9.87;100.00;97557.38;5052514;28;20207;-76
2022/04/07 04:16:09;;;;;;;3.25;1.60;;;;;;;9.88;100.00;97568.97;5051915;28;20202;-75
2022/04/07 04:18:38;;;;;;;1.95;1.60;;;;;;;9.95;100.00;97565.63;5052002;28;20203;-76
2022/04/07 04:21:05;;;;;;;1.92;1.60;;;;;;;10.01;100.00;97570.44;5052476;28;20634;-76
2022/04/07 04:23:32;;;;;;;3.78;1.50;;;;;;;10.01;100.00;97557.00;5052636;28;20540;-76
2022/04/07 04:25:59;;;;;;;1.60;1.40;;;;;;;10.06;100.00;97547.69;5052253;28;20260;-76
2022/04/07 04:28:26;;;;;;;2.95;2.35;;;;;;;10.06;100.00;97542.31;5051793;28;20275;-76
2022/04/07 04:30:52;;;;;;;2.25;1.67;;;;;;;10.06;100.00;97540.47;5052179;28;20191;-76
2022/04/07 04:33:19;;;;;;;3.22;1.60;;;;;;;10.08;100.00;97546.56;5051137;28;20215;-76
2022/04/07 04:35:47;;;;;;;1.70;1.42;;;;;;;10.07;100.00;97544.88;5052238;28;20200;-77
2022/04/07 04:38:13;;;;;;;1.88;1.67;;;;;;;10.09;100.00;97534.81;5051108;28;20184;-75
2022/04/07 04:40:40;;;;;;;3.63;2.20;;;;;;;10.15;100.00;97526.22;5051726;28;20534;-76
2022/04/07 04:43:06;;;;;;;1.95;1.63;;;;;;;10.04;100.00;97510.19;5051414;28;20196;-75
2022/04/07 04:45:33;;;;;;;2.33;1.73;;;;;;;10.09;100.00;97516.00;5052049;28;20198;-76
2022/04/07 04:48:00;;;;;;;3.70;1.83;;;;;;;10.19;100.00;97498.03;5051797;28;20198;-75
2022/04/07 04:50:27;;;;;;;2.50;1.77;;;;;;;10.18;100.00;97504.44;5052152;28;20262;-75
2022/04/07 04:52:55;;;;;;;2.33;1.70;;;;;;;10.21;100.00;97501.44;5051805;28;20608;-75
2022/04/07 04:55:22;;;;;;;2.47;1.65;;;;;;;10.19;100.00;97516.03;5050414;28;20547;-75
2022/04/07 04:57:49;;;;;;;2.70;2.00;;;;;;;10.07;100.00;97512.59;5051637;28;20209;-75
2022/04/07 05:00:16;;;;;;;2.53;2.25;;;;;;;10.19;100.00;97500.72;5051079;28;20207;-75
2022/04/07 05:02:42;;;;;;;2.75;2.33;;;;;;;10.20;100.00;97507.00;5051818;28;20201;-75
2022/04/07 05:05:09;;;;;;;3.10;2.35;;;;;;;10.19;100.00;97516.03;5051811;28;20220;-76
2022/04/07 05:07:36;;;;;;;4.60;3.13;;;;;;;10.19;100.00;97495.34;5052141;28;20268;-76
2022/04/07 05:10:06;;;;;;;4.55;3.42;;;;;;;10.28;100.00;97496.38;5051502;28;20203;-76
2022/04/07 05:12:33;;;;;;;3.50;2.85;;;;;;;10.20;100.00;97498.91;5051191;28;20662;-76
2022/04/07 05:14:59;;;;;;;4.78;3.63;;;;;;;10.09;100.00;97493.66;5051283;28;20192;-75
2022/04/07 05:17:26;;;;;;;4.55;3.25;;;;;;;10.27;100.00;97483.09;5051656;28;20245;-75
2022/04/07 05:19:53;;;;;;;4.13;3.83;;;;;;;10.21;100.00;97474.56;5055449;28;20539;-75
2022/04/07 05:22:19;;;;;;;5.05;4.20;;;;;;;10.30;100.00;97467.53;5055476;28;20215;-76
2022/04/07 05:24:46;;;;;;;4.13;3.75;;;;;;;10.23;100.00;97475.28;5054894;28;20182;-76
2022/04/07 05:27:14;;;;;;;3.95;3.35;;;;;;;10.25;100.00;97474.31;5054988;28;20292;-75
2022/04/07 05:29:40;;;;;;;6.57;4.25;;;;;;;10.29;100.00;97467.66;5055335;28;20192;-75
2022/04/07 05:32:08;;;;;;;3.95;3.22;;;;;;;10.28;100.00;97474.00;5054755;28;20193;-76
2022/04/07 05:34:34;;;;;;;5.00;3.80;;;;;;;10.18;100.00;97469.47;5055047;28;20208;-77
2022/04/07 05:37:01;;;;;;;4.50;3.33;;;;;;;10.18;100.00;97468.63;5055009;28;20209;-75
2022/04/07 05:39:28;;;;;;;4.47;3.92;;;;;;;10.19;100.00;97454.19;5055265;28;20185;-76
2022/04/07 05:41:55;;;;;;;4.18;3.45;;;;;;;10.13;100.00;97444.84;5054350;28;20283;-75
2022/04/07 05:44:23;;;;;;;4.15;3.30;;;;;;;10.19;100.00;97446.94;5055636;28;20242;-75
2022/04/07 05:46:49;;;;;;;4.20;3.80;;;;;;;10.15;100.00;97434.78;5056393;28;20555;-77
2022/04/07 05:49:16;;;;;;;4.30;3.65;;;;;;;10.17;100.00;97442.69;5054809;28;20521;-76
2022/04/07 05:51:43;;;;;;;5.30;4.10;;;;;;;10.21;100.00;97436.91;5057304;28;20188;-76
2022/04/07 05:54:09;;;;;;;4.60;3.90;;;;;;;10.27;100.00;97423.91;5046080;28;20299;-75
2022/04/07 05:56:36;;;;;;;13.00;9.82;;;;;;;10.37;100.00;97420.25;5054439;28;20200;-74
2022/04/07 05:59:02;;;;;;;7.03;4.45;;;;;;;10.36;100.00;97425.78;5054054;28;20281;-78
2022/04/07 06:01:31;;;;;;;6.57;3.90;;;;;;;10.32;100.00;97422.53;5052205;28;20193;-77
2022/04/07 06:03:57;;;;;;;2.95;2.72;;;;;;;10.23;100.00;97416.09;5053160;28;20204;-75
2022/04/07 06:06:24;;;;;;;4.28;3.50;;;;;;;10.19;100.00;97395.00;5053880;28;20207;-76
2022/04/07 06:08:51;;;;;;;4.97;2.90;;;;;;;10.15;100.00;97394.47;5053027;28;20197;-76
2022/04/07 06:11:17;;;;;;;4.75;2.92;;;;;;;10.29;100.00;97386.97;5053715;28;20318;-76
2022/04/07 06:13:44;;;;;;;4.45;3.10;;;;;;;10.39;100.00;97379.78;5050927;28;20567;-76
2022/04/07 06:16:10;;;;;;;3.67;2.78;;;;;;;10.42;100.00;97380.34;5054059;28;20188;-75
2022/04/07 06:18:38;;;;;;;6.03;3.30;;;;;;;10.37;100.00;97361.06;5053501;28;20193;-75
2022/04/07 06:21:05;;;;;;;2.70;2.45;;;;;;;10.43;100.00;97365.03;5053464;28;20197;-76
2022/04/07 06:23:32;;;;;;;4.40;2.53;;;;;;;10.44;100.00;97348.75;5053112;28;20193;-75
2022/04/07 06:25:59;;;;;;;1.80;1.55;;;;;;;10.29;100.00;97341.25;5053747;28;20548;-75
2022/04/07 06:28:25;;;;;;;2.85;2.15;;;;;;;10.26;100.00;97346.91;5054463;28;20655;-74
2022/04/07 06:30:54;;;;;;;2.08;1.50;;;;;;;10.35;100.00;97351.44;5052590;28;20193;-75
2022/04/07 06:33:21;;;;;;;1.80;1.52;;;;;;;10.34;100.00;97323.72;5056500;28;20205;-75
2022/04/07 06:35:49;;;;;;;2.88;2.35;;;;;;;10.33;100.00;97322.00;5053965;28;20185;-75
2022/04/07 06:38:16;;;;;;;1.85;1.58;;;;;;;10.26;100.00;97326.22;5052994;28;20192;-75
2022/04/07 06:40:43;;;;;;;2.70;1.58;;;;;;;10.28;100.00;97332.31;5053696;28;20251;-75
2022/04/07 06:43:09;;;;;;;3.08;1.70;;;;;;;10.19;100.00;97319.72;5053544;28;20194;-75
2022/04/07 06:45:36;;;;;;;4.45;3.30;;;;;;;10.26;100.00;97326.22;5053294;28;20636;-74
2022/04/07 06:48:03;;;;;;;4.03;2.35;;;;;;;10.15;100.00;97308.41;5053011;28;20531;-75
2022/04/07 06:50:31;;;;;;;1.88;1.77;;;;;;;10.23;100.00;97300.47;5053744;28;20660;-75
2022/04/07 06:53:00;;;;;;;3.70;1.77;;;;;;;10.26;100.00;97306.56;5053285;28;20208;-75
2022/04/07 06:55:28;;;;;;;1.90;1.50;;;;;;;10.24;100.00;97293.25;5053956;28;20643;-76
2022/04/07 06:57:56;;;;;;;1.48;1.38;;;;;;;10.23;100.00;97278.97;5053642;28;20618;-75
2022/04/07 07:00:24;;;;;;;1.98;1.33;;;;;;;10.35;100.00;97289.59;5053487;28;20182;-76
2022/04/07 07:02:53;;;;;;;2.55;1.10;;;;;;;10.25;100.00;97286.91;5052946;28;20199;-76
2022/04/07 07:05:20;;;;;;;1.75;1.05;;;;;;;10.36;100.00;97272.47;5053670;28;20187;-77
2022/04/07 07:07:46;;;;;;;3.03;1.30;;;;;;;10.20;100.00;97273.88;5053588;28;20199;-76
2022/04/07 07:10:20;;;;;;;2.97;1.38;;;;;;;10.22;100.00;97261.13;5053396;28;20540;-76
2022/04/07 07:12:46;;;;;;;3.58;1.50;;;;;;;10.22;100.00;97271.03;5053080;28;20197;-77
2022/04/07 07:15:13;;;;;;;1.80;1.63;;;;;;;10.32;100.00;97263.00;5052848;28;20215;-77
2022/04/07 07:17:40;;;;;;;2.47;1.15;;;;;;;10.30;100.00;97265.81;5052957;28;20188;-77
2022/04/07 07:20:10;;;;;;;2.55;1.30;;;;;;;10.41;100.00;97259.44;5053356;28;20196;-76
2022/04/07 07:22:37;;;;;;;2.20;1.40;;;;;;;10.44;100.00;97257.28;5053059;28;20251;-76
2022/04/07 07:25:04;;;;;;;5.20;1.45;;;;;;;10.48;100.00;97271.31;5053100;28;20211;-77
2022/04/07 07:27:37;;;;;;;2.20;1.30;;;;;;;10.50;100.00;97255.88;5052687;28;20502;-76
2022/04/07 07:30:05;;;;;;;4.28;2.20;;;;;;;10.41;100.00;97249.50;5052126;28;20188;-77
2022/04/07 07:32:31;;;;;;;1.77;1.27;;;;;;;10.46;100.00;97250.94;5052312;28;20201;-76
2022/04/07 07:34:59;;;;;;;1.75;1.45;;;;;;;10.44;100.00;97267.19;5053060;28;20213;-76
2022/04/07 07:37:25;;;;;;;1.50;1.10;;;;;;;10.33;100.00;97254.75;5052859;28;20204;-76
2022/04/07 07:39:52;;;;;;;3.83;1.65;;;;;;;10.33;100.00;97251.22;5041576;28;20241;-77
2022/04/07 07:42:18;;;;;;;1.90;1.20;;;;;;;10.31;100.00;97255.91;5049333;28;20188;-77
2022/04/07 07:44:46;;;;;;;2.13;1.15;;;;;;;10.05;100.00;97229.59;5052140;28;20547;-77
2022/04/07 07:47:13;;;;;;;2.10;1.58;;;;;;;9.95;100.00;97234.13;5045644;28;20207;-77
2022/04/07 07:49:40;;;;;;;2.20;1.58;;;;;;;10.05;100.00;97226.91;5031955;28;20206;-78
2022/04/07 07:52:07;;;;;;;4.30;3.50;;;;;;;10.13;100.00;97215.44;5044770;28;20185;-78
2022/04/07 07:54:33;;;;;;;2.25;1.50;;;;;;;10.25;100.00;97216.97;5051457;28;20217;-77
2022/04/07 07:57:00;;;;;;;2.10;1.30;;;;;;;10.29;100.00;97217.53;5051854;28;20185;-77
2022/04/07 07:59:27;;;;;;;2.38;1.50;;;;;;;10.20;100.00;97214.72;5051157;28;20230;-77
2022/04/07 08:01:55;;;;;;;2.38;1.45;;;;;;;10.37;100.00;97213.13;5051529;28;20645;-77
2022/04/07 08:04:21;;;;;;;1.35;1.23;;;;;;;10.39;100.00;97211.16;5051410;28;20398;-76
2022/04/07 08:06:48;;;;;;;2.00;1.13;;;;;;;10.41;100.00;97211.00;5051552;28;20288;-76
2022/04/07 08:09:14;;;;;;;1.50;1.20;;;;;;;10.39;100.00;97199.56;5052445;28;20288;-76
2022/04/07 08:11:42;;;;;;;2.03;1.20;;;;;;;10.38;100.00;97205.94;5051040;28;20585;-76
2022/04/07 08:14:09;;;;;;;1.45;1.15;;;;;;;10.44;100.00;97187.34;5050858;28;20209;-76
2022/04/07 08:16:36;;;;;;;3.70;2.10;;;;;;;10.59;100.00;97193.09;5050737;28;20189;-75
2022/04/07 08:19:05;;;;;;;1.60;1.35;;;;;;;10.61;100.00;97172.28;5050514;28;20205;-76
2022/04/07 08:21:34;;;;;;;2.80;1.00;;;;;;;10.58;100.00;97185.16;5051982;28;20745;-76
2022/04/07 08:24:01;;;;;;;3.03;1.35;;;;;;;10.52;100.00;97170.47;5051811;28;20268;-76
2022/04/07 08:26:27;;;;;;;1.70;1.33;;;;;;;10.64;100.00;97177.34;5051400;28;20283;-75
2022/04/07 08:28:54;;;;;;;1.90;1.45;;;;;;;10.77;100.00;97168.94;5051328;28;20235;-76
2022/04/07 08:31:21;;;;;;;1.70;1.50;;;;;;;10.69;100.00;97176.06;5051606;28;20250;-75
2022/04/07 08:33:47;;;;;;;2.38;1.30;;;;;;;10.77;100.00;97166.25;5051508;28;20207;-75
2022/04/07 08:36:15;;;;;;;2.92;1.40;;;;;;;10.86;100.00;97164.50;5050126;28;20212;-76
2022/04/07 08:38:42;;;;;;;2.30;1.60;;;;;;;10.90;100.00;97179.38;5051959;28;20189;-75
2022/04/07 08:41:12;;;;;;;3.55;2.08;;;;;;;10.88;100.00;97159.84;5049597;28;20649;-76
2022/04/07 08:43:45;;;;;;;2.28;1.33;;;;;;;10.87;100.00;97162.66;5051543;28;20193;-76
2022/04/07 08:46:13;;;;;;;3.58;1.95;;;;;;;10.89;100.00;97153.44;5051280;28;20185;-75
2022/04/07 08:48:42;;;;;;;4.22;1.70;;;;;;;10.92;100.00;97155.84;5051683;28;20196;-75
2022/04/07 08:51:09;;;;;;;3.33;1.50;;;;;;;11.03;100.00;97162.84;5051574;28;20185;-75
2022/04/07 08:53:38;;;;;;;2.65;1.67;;;;;;;10.89;100.00;97156.13;5053527;28;20195;-75
2022/04/07 08:56:06;;;;;;;2.45;1.90;;;;;;;10.94;100.00;97159.19;5055327;28;20662;-76
2022/04/07 08:58:34;;;;;;;2.50;1.92;;;;;;;10.96;100.00;97162.59;5053965;28;20236;-75
2022/04/07 09:01:01;;;;;;;3.20;2.90;;;;;;;10.93;100.00;97146.75;5054273;28;20189;-75
2022/04/07 09:03:28;;;;;;;2.42;2.22;;;;;;;10.88;100.00;97141.00;5054529;28;20201;-75
2022/04/07 09:05:56;;;;;;;2.42;2.22;;;;;;;10.88;100.00;97146.38;5055614;28;20181;-74
2022/04/07 09:08:31;;;;;;;3.38;2.25;;;;;;;10.79;100.00;97133.81;5055235;28;20203;-75
2022/04/07 09:11:01;;;;;;;2.70;2.50;;;;;;;10.72;100.00;97138.97;5055356;28;20196;-76
2022/04/07 09:13:32;;;;;;;2.75;2.10;;;;;;;10.72;100.00;97138.09;5053679;28;20586;-75
2022/04/07 09:16:00;;;;;;;4.93;1.77;;;;;;;10.77;100.00;97138.50;5055328;28;20319;-76
2022/04/07 09:18:27;;;;;;;2.28;1.85;;;;;;;10.83;100.00;97141.44;5056311;28;20631;-76
2022/04/07 09:20:53;;;;;;;3.08;2.00;;;;;;;10.89;100.00;97134.59;5054779;28;20223;-76
2022/04/07 09:23:20;;;;;;;1.98;1.88;;;;;;;10.80;100.00;97143.56;5054907;28;20582;-76
2022/04/07 09:25:49;;;;;;;2.83;2.45;;;;;;;10.89;100.00;97123.81;5054782;28;20243;-75
2022/04/07 09:28:28;;;;;;;2.63;2.20;;;;;;;10.94;100.00;97128.75;5056233;28;20272;-76
2022/04/07 09:30:57;;;;;;;2.42;2.03;;;;;;;11.18;100.00;97133.56;5054430;28;20255;-75
2022/04/07 09:33:24;;;;;;;3.42;2.30;;;;;;;11.36;100.00;97126.31;5055168;28;20236;-76
2022/04/07 09:36:02;;;;;;;4.93;2.97;;;;;;;11.18;100.00;97115.53;5055357;28;20216;-76
2022/04/07 09:38:31;;;;;;;5.20;2.90;;;;;;;11.05;100.00;97105.13;5055194;28;20647;-76
2022/04/07 09:41:04;;;;;;;3.13;2.35;;;;;;;10.96;100.00;97124.91;5054258;28;20525;-77
2022/04/07 09:43:45;;;;;;;2.83;2.22;;;;;;;11.02;100.00;97097.38;5054324;28;20196;-77
2022/04/07 09:46:12;;;;;;;3.40;2.30;;;;;;;11.04;100.00;97103.47;5054929;28;20591;-75
2022/04/07 09:48:40;;;;;;;3.22;2.22;;;;;;;11.21;100.00;97093.69;5047923;28;20585;-76
2022/04/07 09:51:08;;;;;;;2.20;2.00;;;;;;;11.33;100.00;97082.66;5054903;28;20543;-75
2022/04/07 09:53:38;;;;;;;2.42;2.10;;;;;;;11.46;100.00;97077.72;5054195;28;20718;-75
2022/04/07 09:56:06;;;;;;;3.15;2.28;;;;;;;11.47;100.00;97077.59;5054271;28;20664;-75
2022/04/07 09:58:35;;;;;;;3.00;2.35;;;;;;;11.53;100.00;97075.25;5054135;28;20221;-75
2022/04/07 10:01:03;;;;;;;1.60;1.50;;;;;;;11.45;100.00;97071.50;5037058;28;20200;-75
2022/04/07 10:03:31;;;;;;;6.93;1.90;;;;;;;11.45;100.00;97059.88;5054276;28;20193;-76
2022/04/07 10:05:59;;;;;;;2.47;2.25;;;;;;;11.41;100.00;97064.72;5054633;28;20189;-75
2022/04/07 10:08:26;;;;;;;1.48;1.38;;;;;;;11.40;100.00;97063.06;5054745;28;20292;-76
2022/04/07 10:10:54;;;;;;;1.90;1.67;;;;;;;11.48;100.00;97046.94;5054852;28;20560;-75
2022/04/07 10:13:21;;;;;;;2.40;1.48;;;;;;;11.24;100.00;97050.28;5054356;28;20272;-76
2022/04/07 10:15:51;;;;;;;2.10;1.90;;;;;;;11.34;100.00;97041.28;5052991;28;20304;-74
2022/04/07 10:18:22;;;;;;;2.20;1.52;;;;;;;11.45;100.00;97062.59;5034576;28;20228;-76
2022/04/07 10:20:54;;;;;;;2.58;2.00;;;;;;;11.48;100.00;97033.47;5050714;28;20201;-76
2022/04/07 10:23:34;;;;;;;1.80;1.70;;;;;;;11.77;100.00;97034.16;5053957;28;20644;-76
2022/04/07 10:26:02;;;;;;;2.20;1.90;;;;;;;11.99;100.00;97030.97;5045125;28;20295;-76
2022/04/07 10:28:30;;;;;;;2.83;1.90;;;;;;;12.10;100.00;97016.34;5054705;28;20217;-76
2022/04/07 10:30:59;;;;;;;2.40;1.92;;;;;;;12.16;100.00;97023.78;5054686;28;20623;-75
2022/04/07 10:33:40;;;;;;;3.78;2.75;;;;;;;12.02;100.00;97029.78;5053856;28;20233;-74
2022/04/07 10:36:11;;;;;;;2.90;2.10;;;;;;;12.08;100.00;97034.53;5053291;28;20670;-75
2022/04/07 10:38:39;;;;;;;2.05;1.85;;;;;;;12.05;100.00;97019.53;5054170;28;20213;-75
2022/04/07 10:41:06;;;;;;;2.17;1.88;;;;;;;12.17;100.00;97005.75;5053612;28;20274;-76
2022/04/07 10:43:38;;;;;;;1.88;1.50;;;;;;;12.24;100.00;97013.03;5053739;28;20714;-75
2022/04/07 10:46:19;;;;;;;2.05;1.50;;;;;;;12.39;100.00;97001.59;5052978;28;20193;-75
2022/04/07 10:48:50;;;;;;;2.95;1.80;;;;;;;12.68;100.00;96998.47;5053302;28;20644;-75
2022/04/07 10:51:18;;;;;;;3.25;2.88;;;;;;;12.72;100.00;96997.97;5042124;28;20255;-75
2022/04/07 10:54:03;;;;;;;2.10;1.70;;;;;;;12.65;100.00;96982.63;5053393;28;20212;-74
2022/04/07 10:56:34;;;;;;;2.05;1.77;;;;;;;12.64;100.00;96989.88;5052933;28;20308;-75
2022/04/07 10:59:13;;;;;;;3.25;2.00;;;;;;;12.78;100.00;96992.94;5052889;28;20659;-76
2022/04/07 11:02:03;;;;;;;2.40;1.45;;;;;;;12.49;100.00;96994.22;5052654;28;20194;-75
2022/04/07 11:04:41;;;;;;;3.08;1.90;;;;;;;12.37;100.00;96982.03;5053436;28;20228;-75
2022/04/07 11:07:22;;;;;;;3.00;1.50;;;;;;;12.43;100.00;96976.00;5053228;28;20228;-75
2022/04/07 11:10:04;;;;;;;3.15;1.90;;;;;;;12.42;100.00;96967.06;5052345;28;20274;-74
2022/04/07 11:12:33;;;;;;;2.22;2.03;;;;;;;12.46;100.00;96981.06;5052819;28;20196;-75
2022/04/07 11:15:30;;;;;;;2.45;2.25;;;;;;;12.16;100.00;96980.63;5052136;28;20328;-76
2022/04/07 11:18:03;;;;;;;2.40;2.20;;;;;;;12.18;100.00;96985.88;5052952;28;20190;-76
2022/04/07 11:20:30;;;;;;;2.25;1.60;;;;;;;12.20;100.00;96973.91;5052866;28;20212;-75
2022/04/07 11:23:01;;;;;;;1.95;1.45;;;;;;;12.34;100.00;96980.50;5052887;28;20236;-75
2022/04/07 11:25:30;;;;;;;2.88;2.08;;;;;;;12.50;100.00;96968.91;5052475;28;20639;-76
2022/04/07 11:28:04;;;;;;;1.67;1.48;;;;;;;12.49;100.00;96956.44;5052692;28;20192;-75
2022/04/07 11:30:37;;;;;;;1.63;1.50;;;;;;;12.63;100.00;96952.25;5052340;28;20189;-76